sensor_id;sensor_type;location;lat;lon;timestamp;P1;durP1;ratioP1;P2;durP2;ratioP2
30617;SDS011;17384;51.214;9.202;2023-12-14T00:00:24;13.82;;;8.38;;
30617;SDS011;17384;51.214;9.202;2023-12-14T00:02:50;20.10;;;8.60;;
30617;SDS011;17384;51.214;9.202;2023-12-14T00:05:15;15.38;;;7.85;;
30617;SDS011;17384;51.214;9.202;2023-12-14T00:07:41;20.17;;;8.82;;
30617;SDS011;17384;51.214;9.202;2023-12-14T00:10:06;17.55;;;7.95;;
30617;SDS011;17384;51.214;9.202;2023-12-14T00:12:32;17.15;;;8.43;;
30617;SDS011;17384;51.214;9.202;2023-12-14T00:14:58;22.23;;;8.93;;
30617;SDS011;17384;51.214;9.202;2023-12-14T00:17:23;17.55;;;9.23;;
30617;SDS011;17384;51.214;9.202;2023-12-14T00:19:49;16.75;;;8.60;;
30617;SDS011;17384;51.214;9.202;2023-12-14T00:22:14;15.38;;;7.85;;
30617;SDS011;17384;51.214;9.202;2023-12-14T00:24:40;15.75;;;8.45;;
30617;SDS011;17384;51.214;9.202;2023-12-14T00:27:07;14.95;;;7.50;;
30617;SDS011;17384;51.214;9.202;2023-12-14T00:29:32;15.50;;;7.88;;
30617;SDS011;17384;51.214;9.202;2023-12-14T00:31:57;14.02;;;7.53;;
30617;SDS011;17384;51.214;9.202;2023-12-14T00:34:24;12.65;;;8.00;;
30617;SDS011;17384;51.214;9.202;2023-12-14T00:36:50;13.65;;;8.55;;
30617;SDS011;17384;51.214;9.202;2023-12-14T00:39:15;15.30;;;8.27;;
30617;SDS011;17384;51.214;9.202;2023-12-14T00:41:41;17.73;;;8.38;;
30617;SDS011;17384;51.214;9.202;2023-12-14T00:44:06;14.95;;;7.70;;
30617;SDS011;17384;51.214;9.202;2023-12-14T00:46:32;17.67;;;8.82;;
30617;SDS011;17384;51.214;9.202;2023-12-14T00:48:57;14.05;;;8.20;;
30617;SDS011;17384;51.214;9.202;2023-12-14T00:51:23;11.25;;;7.53;;
30617;SDS011;17384;51.214;9.202;2023-12-14T00:53:48;11.65;;;7.63;;
30617;SDS011;17384;51.214;9.202;2023-12-14T00:56:14;16.73;;;8.50;;
30617;SDS011;17384;51.214;9.202;2023-12-14T00:58:39;13.23;;;8.07;;
30617;SDS011;17384;51.214;9.202;2023-12-14T01:01:05;14.43;;;8.35;;
30617;SDS011;17384;51.214;9.202;2023-12-14T01:03:30;16.25;;;7.88;;
30617;SDS011;17384;51.214;9.202;2023-12-14T01:05:56;16.90;;;8.48;;
30617;SDS011;17384;51.214;9.202;2023-12-14T01:08:21;12.02;;;7.72;;
30617;SDS011;17384;51.214;9.202;2023-12-14T01:10:47;14.15;;;8.05;;
30617;SDS011;17384;51.214;9.202;2023-12-14T01:13:12;14.02;;;7.90;;
30617;SDS011;17384;51.214;9.202;2023-12-14T01:15:38;10.73;;;7.65;;
30617;SDS011;17384;51.214;9.202;2023-12-14T01:18:03;19.98;;;8.23;;
30617;SDS011;17384;51.214;9.202;2023-12-14T01:20:28;16.45;;;9.10;;
30617;SDS011;17384;51.214;9.202;2023-12-14T01:22:54;16.27;;;9.10;;
30617;SDS011;17384;51.214;9.202;2023-12-14T01:25:20;14.13;;;8.57;;
30617;SDS011;17384;51.214;9.202;2023-12-14T01:27:45;13.20;;;8.45;;
30617;SDS011;17384;51.214;9.202;2023-12-14T01:30:11;15.50;;;8.27;;
30617;SDS011;17384;51.214;9.202;2023-12-14T01:32:37;16.33;;;9.90;;
30617;SDS011;17384;51.214;9.202;2023-12-14T01:35:02;26.17;;;11.80;;
30617;SDS011;17384;51.214;9.202;2023-12-14T01:37:29;20.80;;;10.10;;
30617;SDS011;17384;51.214;9.202;2023-12-14T01:39:54;15.98;;;8.00;;
30617;SDS011;17384;51.214;9.202;2023-12-14T01:42:20;18.05;;;7.65;;
30617;SDS011;17384;51.214;9.202;2023-12-14T01:44:45;11.05;;;7.05;;
30617;SDS011;17384;51.214;9.202;2023-12-14T01:47:11;19.23;;;9.10;;
30617;SDS011;17384;51.214;9.202;2023-12-14T01:49:36;12.00;;;7.80;;
30617;SDS011;17384;51.214;9.202;2023-12-14T01:52:02;18.05;;;8.68;;
30617;SDS011;17384;51.214;9.202;2023-12-14T01:54:27;16.55;;;9.68;;
30617;SDS011;17384;51.214;9.202;2023-12-14T01:56:53;13.95;;;8.55;;
30617;SDS011;17384;51.214;9.202;2023-12-14T01:59:19;16.40;;;8.48;;
30617;SDS011;17384;51.214;9.202;2023-12-14T02:01:45;14.45;;;8.13;;
30617;SDS011;17384;51.214;9.202;2023-12-14T02:04:12;17.13;;;8.02;;
30617;SDS011;17384;51.214;9.202;2023-12-14T02:06:39;14.50;;;8.82;;
30617;SDS011;17384;51.214;9.202;2023-12-14T02:09:05;13.55;;;8.48;;
30617;SDS011;17384;51.214;9.202;2023-12-14T02:11:31;15.63;;;8.95;;
30617;SDS011;17384;51.214;9.202;2023-12-14T02:13:56;15.88;;;8.55;;
30617;SDS011;17384;51.214;9.202;2023-12-14T02:16:22;12.57;;;7.40;;
30617;SDS011;17384;51.214;9.202;2023-12-14T02:18:48;14.05;;;7.55;;
30617;SDS011;17384;51.214;9.202;2023-12-14T02:21:13;12.07;;;8.45;;
30617;SDS011;17384;51.214;9.202;2023-12-14T02:23:43;11.45;;;7.53;;
30617;SDS011;17384;51.214;9.202;2023-12-14T02:26:09;14.85;;;8.43;;
30617;SDS011;17384;51.214;9.202;2023-12-14T02:28:35;17.05;;;8.25;;
30617;SDS011;17384;51.214;9.202;2023-12-14T02:31:00;14.85;;;7.45;;
30617;SDS011;17384;51.214;9.202;2023-12-14T02:33:26;20.83;;;8.63;;
30617;SDS011;17384;51.214;9.202;2023-12-14T02:35:51;12.70;;;8.18;;
30617;SDS011;17384;51.214;9.202;2023-12-14T02:38:17;15.30;;;7.85;;
30617;SDS011;17384;51.214;9.202;2023-12-14T02:40:42;18.90;;;8.55;;
30617;SDS011;17384;51.214;9.202;2023-12-14T02:43:08;12.23;;;7.38;;
30617;SDS011;17384;51.214;9.202;2023-12-14T02:45:33;12.35;;;7.50;;
30617;SDS011;17384;51.214;9.202;2023-12-14T02:47:59;18.73;;;7.70;;
30617;SDS011;17384;51.214;9.202;2023-12-14T02:50:24;13.90;;;8.45;;
30617;SDS011;17384;51.214;9.202;2023-12-14T02:52:49;13.85;;;8.15;;
30617;SDS011;17384;51.214;9.202;2023-12-14T02:55:15;15.95;;;8.10;;
30617;SDS011;17384;51.214;9.202;2023-12-14T02:57:40;16.58;;;7.85;;
30617;SDS011;17384;51.214;9.202;2023-12-14T03:00:06;13.18;;;8.13;;
30617;SDS011;17384;51.214;9.202;2023-12-14T03:02:32;15.57;;;7.88;;
30617;SDS011;17384;51.214;9.202;2023-12-14T03:04:58;15.50;;;8.02;;
30617;SDS011;17384;51.214;9.202;2023-12-14T03:07:23;16.38;;;8.43;;
30617;SDS011;17384;51.214;9.202;2023-12-14T03:09:49;16.10;;;8.27;;
30617;SDS011;17384;51.214;9.202;2023-12-14T03:12:14;18.23;;;8.70;;
30617;SDS011;17384;51.214;9.202;2023-12-14T03:14:40;23.73;;;8.68;;
30617;SDS011;17384;51.214;9.202;2023-12-14T03:17:06;38.40;;;16.17;;
30617;SDS011;17384;51.214;9.202;2023-12-14T03:19:37;46.17;;;19.10;;
30617;SDS011;17384;51.214;9.202;2023-12-14T03:22:06;48.22;;;19.23;;
30617;SDS011;17384;51.214;9.202;2023-12-14T03:24:32;35.63;;;15.80;;
30617;SDS011;17384;51.214;9.202;2023-12-14T03:26:57;35.05;;;14.60;;
30617;SDS011;17384;51.214;9.202;2023-12-14T03:29:23;26.13;;;12.98;;
30617;SDS011;17384;51.214;9.202;2023-12-14T03:31:48;23.85;;;12.65;;
30617;SDS011;17384;51.214;9.202;2023-12-14T03:34:14;21.92;;;11.35;;
30617;SDS011;17384;51.214;9.202;2023-12-14T03:36:39;18.60;;;10.48;;
30617;SDS011;17384;51.214;9.202;2023-12-14T03:39:05;18.45;;;9.52;;
30617;SDS011;17384;51.214;9.202;2023-12-14T03:41:31;17.13;;;9.30;;
30617;SDS011;17384;51.214;9.202;2023-12-14T03:43:57;15.52;;;8.95;;
30617;SDS011;17384;51.214;9.202;2023-12-14T03:46:22;16.38;;;7.95;;
30617;SDS011;17384;51.214;9.202;2023-12-14T03:48:48;13.95;;;7.97;;
30617;SDS011;17384;51.214;9.202;2023-12-14T03:51:17;12.98;;;7.80;;
30617;SDS011;17384;51.214;9.202;2023-12-14T03:53:43;14.48;;;9.45;;
30617;SDS011;17384;51.214;9.202;2023-12-14T03:56:09;16.65;;;9.80;;
30617;SDS011;17384;51.214;9.202;2023-12-14T03:58:34;17.60;;;9.98;;
30617;SDS011;17384;51.214;9.202;2023-12-14T04:00:59;18.13;;;10.52;;
30617;SDS011;17384;51.214;9.202;2023-12-14T04:03:25;16.50;;;10.13;;
30617;SDS011;17384;51.214;9.202;2023-12-14T04:05:50;17.30;;;10.13;;
30617;SDS011;17384;51.214;9.202;2023-12-14T04:08:16;16.25;;;10.15;;
30617;SDS011;17384;51.214;9.202;2023-12-14T04:10:41;18.23;;;10.02;;
30617;SDS011;17384;51.214;9.202;2023-12-14T04:13:07;16.60;;;9.68;;
30617;SDS011;17384;51.214;9.202;2023-12-14T04:15:32;15.48;;;10.48;;
30617;SDS011;17384;51.214;9.202;2023-12-14T04:17:58;14.45;;;9.23;;
30617;SDS011;17384;51.214;9.202;2023-12-14T04:20:23;14.30;;;9.75;;
30617;SDS011;17384;51.214;9.202;2023-12-14T04:22:49;17.23;;;10.57;;
30617;SDS011;17384;51.214;9.202;2023-12-14T04:25:14;17.80;;;11.30;;
30617;SDS011;17384;51.214;9.202;2023-12-14T04:27:40;15.85;;;9.98;;
30617;SDS011;17384;51.214;9.202;2023-12-14T04:30:05;15.65;;;9.93;;
30617;SDS011;17384;51.214;9.202;2023-12-14T04:32:35;14.10;;;8.57;;
30617;SDS011;17384;51.214;9.202;2023-12-14T04:35:04;13.45;;;8.80;;
30617;SDS011;17384;51.214;9.202;2023-12-14T04:37:30;12.70;;;8.52;;
30617;SDS011;17384;51.214;9.202;2023-12-14T04:39:56;18.13;;;8.85;;
30617;SDS011;17384;51.214;9.202;2023-12-14T04:42:22;13.77;;;9.45;;
30617;SDS011;17384;51.214;9.202;2023-12-14T04:44:48;15.50;;;9.73;;
30617;SDS011;17384;51.214;9.202;2023-12-14T04:47:13;13.02;;;8.73;;
30617;SDS011;17384;51.214;9.202;2023-12-14T04:49:39;13.95;;;8.77;;
30617;SDS011;17384;51.214;9.202;2023-12-14T04:52:04;13.95;;;8.55;;
30617;SDS011;17384;51.214;9.202;2023-12-14T04:54:30;14.98;;;9.38;;
30617;SDS011;17384;51.214;9.202;2023-12-14T04:56:56;16.70;;;9.20;;
30617;SDS011;17384;51.214;9.202;2023-12-14T04:59:21;16.80;;;9.85;;
30617;SDS011;17384;51.214;9.202;2023-12-14T05:01:47;16.27;;;9.27;;
30617;SDS011;17384;51.214;9.202;2023-12-14T05:04:13;16.80;;;9.70;;
30617;SDS011;17384;51.214;9.202;2023-12-14T05:06:38;18.35;;;8.95;;
30617;SDS011;17384;51.214;9.202;2023-12-14T05:09:04;16.52;;;9.50;;
30617;SDS011;17384;51.214;9.202;2023-12-14T05:11:31;15.25;;;8.98;;
30617;SDS011;17384;51.214;9.202;2023-12-14T05:13:57;18.52;;;8.73;;
30617;SDS011;17384;51.214;9.202;2023-12-14T05:16:23;17.00;;;8.93;;
30617;SDS011;17384;51.214;9.202;2023-12-14T05:18:55;24.27;;;12.65;;
30617;SDS011;17384;51.214;9.202;2023-12-14T05:21:20;22.63;;;11.48;;
30617;SDS011;17384;51.214;9.202;2023-12-14T05:23:46;22.48;;;11.07;;
30617;SDS011;17384;51.214;9.202;2023-12-14T05:26:11;25.75;;;12.55;;
30617;SDS011;17384;51.214;9.202;2023-12-14T05:28:37;17.65;;;9.90;;
30617;SDS011;17384;51.214;9.202;2023-12-14T05:31:02;17.35;;;9.63;;
30617;SDS011;17384;51.214;9.202;2023-12-14T05:33:29;24.08;;;12.25;;
30617;SDS011;17384;51.214;9.202;2023-12-14T05:35:56;23.25;;;12.52;;
30617;SDS011;17384;51.214;9.202;2023-12-14T05:38:22;25.00;;;10.88;;
30617;SDS011;17384;51.214;9.202;2023-12-14T05:40:47;25.83;;;12.98;;
30617;SDS011;17384;51.214;9.202;2023-12-14T05:43:12;30.75;;;14.30;;
30617;SDS011;17384;51.214;9.202;2023-12-14T05:45:38;30.85;;;14.65;;
30617;SDS011;17384;51.214;9.202;2023-12-14T05:48:03;26.30;;;12.40;;
30617;SDS011;17384;51.214;9.202;2023-12-14T05:50:30;24.30;;;12.60;;
30617;SDS011;17384;51.214;9.202;2023-12-14T05:52:56;28.05;;;13.35;;
30617;SDS011;17384;51.214;9.202;2023-12-14T05:55:22;24.65;;;11.88;;
30617;SDS011;17384;51.214;9.202;2023-12-14T05:57:50;24.08;;;12.63;;
30617;SDS011;17384;51.214;9.202;2023-12-14T06:00:15;20.45;;;10.82;;
30617;SDS011;17384;51.214;9.202;2023-12-14T06:02:41;20.13;;;9.90;;
30617;SDS011;17384;51.214;9.202;2023-12-14T06:05:07;21.55;;;9.38;;
30617;SDS011;17384;51.214;9.202;2023-12-14T06:07:33;14.73;;;7.15;;
30617;SDS011;17384;51.214;9.202;2023-12-14T06:09:59;13.10;;;7.35;;
30617;SDS011;17384;51.214;9.202;2023-12-14T06:12:25;18.40;;;10.70;;
30617;SDS011;17384;51.214;9.202;2023-12-14T06:14:51;18.10;;;12.13;;
30617;SDS011;17384;51.214;9.202;2023-12-14T06:17:16;12.73;;;8.30;;
30617;SDS011;17384;51.214;9.202;2023-12-14T06:19:42;24.15;;;11.07;;
30617;SDS011;17384;51.214;9.202;2023-12-14T06:22:07;17.67;;;14.73;;
30617;SDS011;17384;51.214;9.202;2023-12-14T06:24:33;16.48;;;13.18;;
30617;SDS011;17384;51.214;9.202;2023-12-14T06:26:58;40.33;;;31.48;;
30617;SDS011;17384;51.214;9.202;2023-12-14T06:29:24;14.98;;;9.52;;
30617;SDS011;17384;51.214;9.202;2023-12-14T06:31:50;50.28;;;42.85;;
30617;SDS011;17384;51.214;9.202;2023-12-14T06:34:16;28.17;;;22.83;;
30617;SDS011;17384;51.214;9.202;2023-12-14T06:36:44;8.90;;;6.90;;
30617;SDS011;17384;51.214;9.202;2023-12-14T06:39:10;9.10;;;5.80;;
30617;SDS011;17384;51.214;9.202;2023-12-14T06:41:36;8.63;;;4.95;;
30617;SDS011;17384;51.214;9.202;2023-12-14T06:44:02;7.68;;;5.45;;
30617;SDS011;17384;51.214;9.202;2023-12-14T06:46:28;12.65;;;6.63;;
30617;SDS011;17384;51.214;9.202;2023-12-14T06:48:54;10.02;;;6.05;;
30617;SDS011;17384;51.214;9.202;2023-12-14T06:51:20;11.52;;;9.38;;
30617;SDS011;17384;51.214;9.202;2023-12-14T06:53:48;10.60;;;7.53;;
30617;SDS011;17384;51.214;9.202;2023-12-14T06:56:15;9.63;;;7.30;;
30617;SDS011;17384;51.214;9.202;2023-12-14T06:58:41;8.45;;;6.45;;
30617;SDS011;17384;51.214;9.202;2023-12-14T07:01:08;6.88;;;5.13;;
30617;SDS011;17384;51.214;9.202;2023-12-14T07:03:39;8.27;;;5.03;;
30617;SDS011;17384;51.214;9.202;2023-12-14T07:06:13;7.80;;;6.22;;
30617;SDS011;17384;51.214;9.202;2023-12-14T07:08:40;11.98;;;6.38;;
30617;SDS011;17384;51.214;9.202;2023-12-14T07:11:06;8.73;;;6.13;;
30617;SDS011;17384;51.214;9.202;2023-12-14T07:13:36;10.18;;;6.65;;
30617;SDS011;17384;51.214;9.202;2023-12-14T07:16:05;9.85;;;6.32;;
30617;SDS011;17384;51.214;9.202;2023-12-14T07:18:33;12.25;;;8.02;;
30617;SDS011;17384;51.214;9.202;2023-12-14T07:21:00;9.68;;;6.90;;
30617;SDS011;17384;51.214;9.202;2023-12-14T07:23:26;7.55;;;5.72;;
30617;SDS011;17384;51.214;9.202;2023-12-14T07:25:52;12.43;;;4.50;;
30617;SDS011;17384;51.214;9.202;2023-12-14T07:28:17;8.18;;;5.13;;
30617;SDS011;17384;51.214;9.202;2023-12-14T07:30:43;6.53;;;3.72;;
30617;SDS011;17384;51.214;9.202;2023-12-14T07:33:09;8.50;;;4.35;;
30617;SDS011;17384;51.214;9.202;2023-12-14T07:35:35;5.82;;;3.45;;
30617;SDS011;17384;51.214;9.202;2023-12-14T07:38:00;6.55;;;3.85;;
30617;SDS011;17384;51.214;9.202;2023-12-14T07:40:26;9.23;;;4.00;;
30617;SDS011;17384;51.214;9.202;2023-12-14T07:42:51;7.57;;;4.28;;
30617;SDS011;17384;51.214;9.202;2023-12-14T07:45:17;8.88;;;3.95;;
30617;SDS011;17384;51.214;9.202;2023-12-14T07:47:42;9.15;;;4.40;;
30617;SDS011;17384;51.214;9.202;2023-12-14T07:50:08;7.80;;;4.80;;
30617;SDS011;17384;51.214;9.202;2023-12-14T07:52:34;9.32;;;6.22;;
30617;SDS011;17384;51.214;9.202;2023-12-14T07:55:00;8.55;;;4.95;;
30617;SDS011;17384;51.214;9.202;2023-12-14T07:57:25;11.07;;;5.95;;
30617;SDS011;17384;51.214;9.202;2023-12-14T07:59:51;11.50;;;5.10;;
30617;SDS011;17384;51.214;9.202;2023-12-14T08:02:16;8.63;;;5.38;;
30617;SDS011;17384;51.214;9.202;2023-12-14T08:04:42;12.65;;;6.10;;
30617;SDS011;17384;51.214;9.202;2023-12-14T08:07:07;13.20;;;6.60;;
30617;SDS011;17384;51.214;9.202;2023-12-14T08:09:32;12.02;;;6.55;;
30617;SDS011;17384;51.214;9.202;2023-12-14T08:11:58;11.98;;;6.55;;
30617;SDS011;17384;51.214;9.202;2023-12-14T08:14:23;11.13;;;6.60;;
30617;SDS011;17384;51.214;9.202;2023-12-14T08:16:49;11.38;;;7.25;;
30617;SDS011;17384;51.214;9.202;2023-12-14T08:19:14;14.02;;;6.97;;
30617;SDS011;17384;51.214;9.202;2023-12-14T08:21:40;14.73;;;7.07;;
30617;SDS011;17384;51.214;9.202;2023-12-14T08:24:05;15.68;;;8.05;;
30617;SDS011;17384;51.214;9.202;2023-12-14T08:26:31;12.90;;;6.95;;
30617;SDS011;17384;51.214;9.202;2023-12-14T08:28:57;16.25;;;8.20;;
30617;SDS011;17384;51.214;9.202;2023-12-14T08:31:22;11.25;;;6.65;;
30617;SDS011;17384;51.214;9.202;2023-12-14T08:33:47;12.55;;;6.85;;
30617;SDS011;17384;51.214;9.202;2023-12-14T08:36:16;13.43;;;7.18;;
30617;SDS011;17384;51.214;9.202;2023-12-14T08:38:42;16.20;;;9.35;;
30617;SDS011;17384;51.214;9.202;2023-12-14T08:41:07;18.92;;;8.70;;
30617;SDS011;17384;51.214;9.202;2023-12-14T08:43:33;17.02;;;8.45;;
30617;SDS011;17384;51.214;9.202;2023-12-14T08:45:58;16.05;;;8.95;;
30617;SDS011;17384;51.214;9.202;2023-12-14T08:48:24;16.33;;;9.60;;
30617;SDS011;17384;51.214;9.202;2023-12-14T08:50:49;18.90;;;9.32;;
30617;SDS011;17384;51.214;9.202;2023-12-14T08:53:15;19.30;;;10.63;;
30617;SDS011;17384;51.214;9.202;2023-12-14T08:55:41;23.95;;;11.98;;
30617;SDS011;17384;51.214;9.202;2023-12-14T08:58:06;26.02;;;11.93;;
30617;SDS011;17384;51.214;9.202;2023-12-14T09:00:31;25.90;;;12.75;;
30617;SDS011;17384;51.214;9.202;2023-12-14T09:02:57;28.27;;;13.20;;
30617;SDS011;17384;51.214;9.202;2023-12-14T09:05:23;30.45;;;13.82;;
30617;SDS011;17384;51.214;9.202;2023-12-14T09:07:49;27.80;;;13.43;;
30617;SDS011;17384;51.214;9.202;2023-12-14T09:10:17;25.45;;;12.93;;
30617;SDS011;17384;51.214;9.202;2023-12-14T09:12:43;28.60;;;14.05;;
30617;SDS011;17384;51.214;9.202;2023-12-14T09:15:09;28.63;;;13.73;;
30617;SDS011;17384;51.214;9.202;2023-12-14T09:17:34;32.83;;;14.13;;
30617;SDS011;17384;51.214;9.202;2023-12-14T09:20:00;18.85;;;10.32;;
30617;SDS011;17384;51.214;9.202;2023-12-14T09:22:26;18.35;;;9.55;;
30617;SDS011;17384;51.214;9.202;2023-12-14T09:24:52;16.38;;;8.88;;
30617;SDS011;17384;51.214;9.202;2023-12-14T09:27:18;16.80;;;9.57;;
30617;SDS011;17384;51.214;9.202;2023-12-14T09:29:43;23.13;;;10.45;;
30617;SDS011;17384;51.214;9.202;2023-12-14T09:32:09;21.80;;;9.77;;
30617;SDS011;17384;51.214;9.202;2023-12-14T09:34:34;16.48;;;8.80;;
30617;SDS011;17384;51.214;9.202;2023-12-14T09:37:00;18.98;;;9.07;;
30617;SDS011;17384;51.214;9.202;2023-12-14T09:39:25;16.23;;;8.32;;
30617;SDS011;17384;51.214;9.202;2023-12-14T09:41:53;19.33;;;8.02;;
30617;SDS011;17384;51.214;9.202;2023-12-14T09:44:27;20.58;;;9.02;;
30617;SDS011;17384;51.214;9.202;2023-12-14T09:46:54;19.05;;;9.95;;
30617;SDS011;17384;51.214;9.202;2023-12-14T09:49:20;20.20;;;10.30;;
30617;SDS011;17384;51.214;9.202;2023-12-14T09:51:48;20.58;;;10.88;;
30617;SDS011;17384;51.214;9.202;2023-12-14T09:54:14;21.58;;;10.43;;
30617;SDS011;17384;51.214;9.202;2023-12-14T09:56:46;18.15;;;10.38;;
30617;SDS011;17384;51.214;9.202;2023-12-14T09:59:12;20.27;;;10.73;;
30617;SDS011;17384;51.214;9.202;2023-12-14T10:01:38;27.85;;;12.40;;
30617;SDS011;17384;51.214;9.202;2023-12-14T10:04:14;24.05;;;12.18;;
30617;SDS011;17384;51.214;9.202;2023-12-14T10:06:44;22.50;;;12.02;;
30617;SDS011;17384;51.214;9.202;2023-12-14T10:09:11;21.05;;;11.23;;
30617;SDS011;17384;51.214;9.202;2023-12-14T10:11:44;22.40;;;11.85;;
30617;SDS011;17384;51.214;9.202;2023-12-14T10:14:23;27.25;;;12.70;;
30617;SDS011;17384;51.214;9.202;2023-12-14T10:16:50;28.63;;;14.23;;
30617;SDS011;17384;51.214;9.202;2023-12-14T10:19:19;25.90;;;13.38;;
30617;SDS011;17384;51.214;9.202;2023-12-14T10:21:45;24.95;;;13.15;;
30617;SDS011;17384;51.214;9.202;2023-12-14T10:24:12;22.95;;;11.98;;
30617;SDS011;17384;51.214;9.202;2023-12-14T10:26:38;29.77;;;14.88;;
30617;SDS011;17384;51.214;9.202;2023-12-14T10:29:03;29.15;;;15.20;;
30617;SDS011;17384;51.214;9.202;2023-12-14T10:31:32;26.70;;;13.95;;
30617;SDS011;17384;51.214;9.202;2023-12-14T10:34:02;28.92;;;14.95;;
30617;SDS011;17384;51.214;9.202;2023-12-14T10:36:31;29.40;;;15.02;;
30617;SDS011;17384;51.214;9.202;2023-12-14T10:38:58;32.80;;;16.63;;
30617;SDS011;17384;51.214;9.202;2023-12-14T10:41:25;35.35;;;17.52;;
30617;SDS011;17384;51.214;9.202;2023-12-14T10:43:53;33.05;;;15.10;;
30617;SDS011;17384;51.214;9.202;2023-12-14T10:46:20;32.92;;;16.10;;
30617;SDS011;17384;51.214;9.202;2023-12-14T10:48:49;31.73;;;16.63;;
30617;SDS011;17384;51.214;9.202;2023-12-14T10:51:16;37.72;;;16.55;;
30617;SDS011;17384;51.214;9.202;2023-12-14T10:53:44;34.75;;;16.20;;
30617;SDS011;17384;51.214;9.202;2023-12-14T10:56:12;33.70;;;16.92;;
30617;SDS011;17384;51.214;9.202;2023-12-14T11:01:16;37.42;;;18.42;;
30617;SDS011;17384;51.214;9.202;2023-12-14T11:03:43;37.28;;;17.52;;
30617;SDS011;17384;51.214;9.202;2023-12-14T11:06:42;34.85;;;17.30;;
30617;SDS011;17384;51.214;9.202;2023-12-14T11:09:06;38.05;;;16.98;;
30617;SDS011;17384;51.214;9.202;2023-12-14T11:11:42;36.22;;;17.92;;
30617;SDS011;17384;51.214;9.202;2023-12-14T11:14:22;44.35;;;19.23;;
30617;SDS011;17384;51.214;9.202;2023-12-14T11:16:48;40.08;;;17.85;;
30617;SDS011;17384;51.214;9.202;2023-12-14T11:21:47;41.55;;;17.90;;
30617;SDS011;17384;51.214;9.202;2023-12-14T11:24:21;42.10;;;17.85;;
30617;SDS011;17384;51.214;9.202;2023-12-14T11:26:50;38.15;;;17.95;;
30617;SDS011;17384;51.214;9.202;2023-12-14T11:29:19;36.80;;;17.67;;
30617;SDS011;17384;51.214;9.202;2023-12-14T11:31:46;34.17;;;15.88;;
30617;SDS011;17384;51.214;9.202;2023-12-14T11:34:13;38.42;;;18.05;;
30617;SDS011;17384;51.214;9.202;2023-12-14T11:36:40;37.47;;;16.77;;
30617;SDS011;17384;51.214;9.202;2023-12-14T11:39:09;31.40;;;16.95;;
30617;SDS011;17384;51.214;9.202;2023-12-14T11:41:35;37.60;;;17.50;;
30617;SDS011;17384;51.214;9.202;2023-12-14T11:44:01;30.70;;;15.55;;
30617;SDS011;17384;51.214;9.202;2023-12-14T11:46:28;27.23;;;15.55;;
30617;SDS011;17384;51.214;9.202;2023-12-14T11:48:55;28.00;;;14.32;;
30617;SDS011;17384;51.214;9.202;2023-12-14T11:51:22;30.48;;;15.60;;
30617;SDS011;17384;51.214;9.202;2023-12-14T11:53:47;26.98;;;14.45;;
30617;SDS011;17384;51.214;9.202;2023-12-14T11:56:14;26.30;;;14.60;;
30617;SDS011;17384;51.214;9.202;2023-12-14T11:58:43;30.55;;;15.95;;
30617;SDS011;17384;51.214;9.202;2023-12-14T12:03:42;28.67;;;15.73;;
30617;SDS011;17384;51.214;9.202;2023-12-14T12:06:19;29.00;;;15.90;;
30617;SDS011;17384;51.214;9.202;2023-12-14T12:08:46;27.67;;;15.35;;
30617;SDS011;17384;51.214;9.202;2023-12-14T12:11:15;28.05;;;15.77;;
30617;SDS011;17384;51.214;9.202;2023-12-14T12:13:42;28.27;;;15.18;;
30617;SDS011;17384;51.214;9.202;2023-12-14T12:16:07;24.73;;;14.57;;
30617;SDS011;17384;51.214;9.202;2023-12-14T12:18:33;25.75;;;14.88;;
30617;SDS011;17384;51.214;9.202;2023-12-14T12:20:59;25.55;;;14.68;;
30617;SDS011;17384;51.214;9.202;2023-12-14T12:23:29;29.23;;;15.60;;
30617;SDS011;17384;51.214;9.202;2023-12-14T12:25:54;30.20;;;16.00;;
30617;SDS011;17384;51.214;9.202;2023-12-14T12:28:20;28.30;;;15.43;;
30617;SDS011;17384;51.214;9.202;2023-12-14T12:30:47;31.25;;;14.80;;
30617;SDS011;17384;51.214;9.202;2023-12-14T12:33:12;36.47;;;18.88;;
30617;SDS011;17384;51.214;9.202;2023-12-14T12:35:38;32.15;;;16.20;;
30617;SDS011;17384;51.214;9.202;2023-12-14T12:38:04;29.80;;;16.67;;
30617;SDS011;17384;51.214;9.202;2023-12-14T12:40:29;31.65;;;17.83;;
30617;SDS011;17384;51.214;9.202;2023-12-14T12:42:56;40.53;;;20.52;;
30617;SDS011;17384;51.214;9.202;2023-12-14T12:45:22;29.90;;;15.80;;
30617;SDS011;17384;51.214;9.202;2023-12-14T12:47:50;28.38;;;15.63;;
30617;SDS011;17384;51.214;9.202;2023-12-14T12:50:15;31.55;;;16.35;;
30617;SDS011;17384;51.214;9.202;2023-12-14T12:52:41;30.65;;;17.13;;
30617;SDS011;17384;51.214;9.202;2023-12-14T12:55:07;31.85;;;17.48;;
30617;SDS011;17384;51.214;9.202;2023-12-14T12:57:34;32.28;;;18.52;;
30617;SDS011;17384;51.214;9.202;2023-12-14T13:00:00;34.33;;;18.60;;
30617;SDS011;17384;51.214;9.202;2023-12-14T13:02:26;36.08;;;18.35;;
30617;SDS011;17384;51.214;9.202;2023-12-14T13:04:51;33.13;;;18.25;;
30617;SDS011;17384;51.214;9.202;2023-12-14T13:07:18;31.58;;;17.52;;
30617;SDS011;17384;51.214;9.202;2023-12-14T13:09:44;32.38;;;17.65;;
30617;SDS011;17384;51.214;9.202;2023-12-14T13:12:09;38.03;;;18.52;;
30617;SDS011;17384;51.214;9.202;2023-12-14T13:14:35;39.97;;;20.30;;
30617;SDS011;17384;51.214;9.202;2023-12-14T13:17:00;34.95;;;19.00;;
30617;SDS011;17384;51.214;9.202;2023-12-14T13:19:26;35.38;;;19.27;;
30617;SDS011;17384;51.214;9.202;2023-12-14T13:21:52;37.25;;;19.85;;
30617;SDS011;17384;51.214;9.202;2023-12-14T13:24:18;35.58;;;19.23;;
30617;SDS011;17384;51.214;9.202;2023-12-14T13:26:44;38.25;;;20.10;;
30617;SDS011;17384;51.214;9.202;2023-12-14T13:29:09;37.58;;;19.88;;
30617;SDS011;17384;51.214;9.202;2023-12-14T13:31:35;40.38;;;20.65;;
30617;SDS011;17384;51.214;9.202;2023-12-14T13:34:01;38.42;;;20.13;;
30617;SDS011;17384;51.214;9.202;2023-12-14T13:36:26;40.20;;;20.38;;
30617;SDS011;17384;51.214;9.202;2023-12-14T13:38:52;41.60;;;21.70;;
30617;SDS011;17384;51.214;9.202;2023-12-14T13:41:17;42.30;;;22.08;;
30617;SDS011;17384;51.214;9.202;2023-12-14T13:43:43;38.75;;;19.83;;
30617;SDS011;17384;51.214;9.202;2023-12-14T13:46:09;39.72;;;20.08;;
30617;SDS011;17384;51.214;9.202;2023-12-14T13:48:35;41.42;;;22.10;;
30617;SDS011;17384;51.214;9.202;2023-12-14T13:51:00;37.92;;;20.00;;
30617;SDS011;17384;51.214;9.202;2023-12-14T13:53:26;36.38;;;19.85;;
30617;SDS011;17384;51.214;9.202;2023-12-14T13:55:51;37.70;;;20.13;;
30617;SDS011;17384;51.214;9.202;2023-12-14T13:58:17;39.85;;;21.20;;
30617;SDS011;17384;51.214;9.202;2023-12-14T14:00:43;39.22;;;20.88;;
30617;SDS011;17384;51.214;9.202;2023-12-14T14:03:09;33.08;;;18.13;;
30617;SDS011;17384;51.214;9.202;2023-12-14T14:05:35;37.60;;;19.80;;
30617;SDS011;17384;51.214;9.202;2023-12-14T14:08:01;36.40;;;19.98;;
30617;SDS011;17384;51.214;9.202;2023-12-14T14:10:26;39.33;;;20.63;;
30617;SDS011;17384;51.214;9.202;2023-12-14T14:12:52;45.13;;;22.15;;
30617;SDS011;17384;51.214;9.202;2023-12-14T14:15:18;37.40;;;18.90;;
30617;SDS011;17384;51.214;9.202;2023-12-14T14:17:45;41.92;;;20.80;;
30617;SDS011;17384;51.214;9.202;2023-12-14T14:20:13;35.35;;;18.67;;
30617;SDS011;17384;51.214;9.202;2023-12-14T14:22:39;40.97;;;21.15;;
30617;SDS011;17384;51.214;9.202;2023-12-14T14:25:05;40.25;;;20.98;;
30617;SDS011;17384;51.214;9.202;2023-12-14T14:27:34;35.92;;;20.13;;
30617;SDS011;17384;51.214;9.202;2023-12-14T14:29:59;36.47;;;20.60;;